"WATCHING THE WEATHER TO PROTECT LIFE AND PROPERTY"


Aviation
Satellite (InfraRed)


TNCA 180200Z 09014KT 9999 FEW018 26/22 Q1015 NOSIG
TNCB 180155Z AUTO 09014KT 060V120 9999 FEW018/// 26/21 Q1015
TNCC 180200Z AUTO 10014KT 9999 NCD 26/21 Q1015 NOSIG
TNCM 180200Z 07003KT CAVOK 23/19 Q1019 RMK A3009